createdAt,value
2022-12-25T00:00:46.867Z,8.20
2022-12-25T00:01:46.793Z,8.22
2022-12-25T00:02:47.013Z,8.20
2022-12-25T00:03:46.905Z,8.07
2022-12-25T00:04:46.720Z,8.20
2022-12-25T00:05:46.699Z,8.20
2022-12-25T00:06:46.685Z,8.05
2022-12-25T00:07:46.649Z,8.20
2022-12-25T00:08:46.618Z,8.18
2022-12-25T00:09:46.599Z,8.19
2022-12-25T00:10:46.564Z,8.19
2022-12-25T00:11:46.556Z,8.20
2022-12-25T00:12:46.516Z,8.19
2022-12-25T00:13:46.502Z,8.26
2022-12-25T00:14:46.463Z,8.29
2022-12-25T00:15:46.495Z,8.25
2022-12-25T00:16:46.495Z,8.20
2022-12-25T00:17:46.385Z,8.20
2022-12-25T00:18:46.402Z,8.18
2022-12-25T00:19:46.335Z,8.18
2022-12-25T00:20:46.305Z,8.12
2022-12-25T00:21:46.286Z,8.11
2022-12-25T00:22:46.256Z,8.10
2022-12-25T00:23:46.251Z,8.08
2022-12-25T00:24:46.207Z,8.05
2022-12-25T00:25:46.179Z,8.04
2022-12-25T00:26:46.155Z,7.98
2022-12-25T00:27:46.134Z,8.07
2022-12-25T00:28:46.107Z,7.98
2022-12-25T00:29:46.077Z,8.05
2022-12-25T00:30:46.049Z,8.10
2022-12-25T00:31:46.091Z,8.02
2022-12-25T00:32:46.003Z,8.15
2022-12-25T00:33:45.995Z,8.16
2022-12-25T00:34:45.971Z,8.10
2022-12-25T00:35:45.925Z,8.12
2022-12-25T00:36:45.902Z,8.23
2022-12-25T00:37:45.874Z,8.19
2022-12-25T00:38:45.845Z,8.11
2022-12-25T00:39:45.837Z,8.08
2022-12-25T00:40:45.795Z,8.22
2022-12-25T00:41:45.768Z,8.20
2022-12-25T00:42:45.745Z,8.22
2022-12-25T00:43:45.728Z,8.26
2022-12-25T00:44:45.691Z,8.33
2022-12-25T00:45:45.740Z,8.25
2022-12-25T00:46:45.659Z,8.37
2022-12-25T00:47:45.623Z,8.34
2022-12-25T00:48:45.593Z,8.26
2022-12-25T00:49:45.567Z,8.40
2022-12-25T00:50:45.627Z,8.37
2022-12-25T00:51:45.519Z,8.38
2022-12-25T00:52:45.487Z,8.36
2022-12-25T00:53:45.470Z,8.37
2022-12-25T00:54:45.447Z,8.41
2022-12-25T00:55:45.412Z,8.37
2022-12-25T00:56:45.389Z,8.37
2022-12-25T00:57:45.366Z,8.40
2022-12-25T00:58:45.334Z,8.41
2022-12-25T00:59:45.310Z,8.38
2022-12-25T01:00:45.332Z,8.50
2022-12-25T01:01:45.505Z,8.52
2022-12-25T01:02:45.412Z,8.43
2022-12-25T01:03:45.211Z,8.41
2022-12-25T01:04:45.181Z,8.38
2022-12-25T01:05:45.160Z,8.41
2022-12-25T01:06:45.156Z,8.41
2022-12-25T01:07:45.124Z,8.53
2022-12-25T01:08:45.081Z,8.50
2022-12-25T01:09:45.055Z,8.50
2022-12-25T01:10:45.026Z,8.55
2022-12-25T01:11:45.013Z,8.53
2022-12-25T01:12:45.001Z,8.62
2022-12-25T01:13:44.951Z,8.61
2022-12-25T01:14:44.925Z,8.63
2022-12-25T01:15:44.900Z,8.62
2022-12-25T01:16:45.008Z,8.62
2022-12-25T01:17:44.850Z,8.47
2022-12-25T01:18:44.822Z,8.65
2022-12-25T01:19:44.802Z,8.61
2022-12-25T01:20:44.776Z,8.70
2022-12-25T01:21:44.761Z,8.63
2022-12-25T01:22:44.749Z,8.56
2022-12-25T01:23:44.732Z,8.58
2022-12-25T01:24:44.675Z,8.63
2022-12-25T01:25:44.647Z,8.68
2022-12-25T01:26:44.619Z,8.66
2022-12-25T01:27:44.594Z,8.62
2022-12-25T01:28:44.595Z,8.62
2022-12-25T01:29:44.549Z,8.62
2022-12-25T01:30:44.515Z,8.65
2022-12-25T01:31:44.571Z,8.63
2022-12-25T01:32:44.468Z,8.61
2022-12-25T01:33:44.446Z,8.62
2022-12-25T01:34:44.412Z,8.58
2022-12-25T01:35:44.393Z,8.65
2022-12-25T01:36:44.379Z,8.66
2022-12-25T01:37:44.361Z,8.65
2022-12-25T01:38:44.348Z,8.70
2022-12-25T01:39:44.293Z,8.74
2022-12-25T01:40:44.260Z,8.73
2022-12-25T01:41:44.240Z,8.76
2022-12-25T01:42:44.212Z,8.70
2022-12-25T01:43:44.195Z,8.77
2022-12-25T01:44:44.166Z,8.73
2022-12-25T01:45:44.274Z,8.62
2022-12-25T01:46:44.123Z,8.70
2022-12-25T01:47:44.097Z,8.70
2022-12-25T01:48:44.074Z,8.74
2022-12-25T01:49:44.039Z,8.71
2022-12-25T01:50:44.020Z,8.63
2022-12-25T01:51:43.996Z,8.76
2022-12-25T01:52:43.971Z,8.71
2022-12-25T01:53:43.931Z,8.71
2022-12-25T01:54:43.926Z,8.74
2022-12-25T01:55:43.887Z,8.77
2022-12-25T01:56:43.859Z,8.80
2022-12-25T01:57:43.835Z,8.74
2022-12-25T01:58:43.811Z,8.74
2022-12-25T01:59:43.788Z,8.79
2022-12-25T02:00:43.781Z,8.79
2022-12-25T02:01:43.867Z,8.80
2022-12-25T02:02:43.771Z,8.77
2022-12-25T02:03:43.683Z,8.80
2022-12-25T02:04:43.650Z,8.71
2022-12-25T02:05:43.630Z,8.79
2022-12-25T02:06:43.626Z,8.83
2022-12-25T02:07:43.576Z,8.86
2022-12-25T02:08:43.547Z,8.77
2022-12-25T02:09:43.529Z,8.81
2022-12-25T02:10:43.565Z,8.74
2022-12-25T02:11:43.481Z,8.80
2022-12-25T02:12:43.445Z,8.83
2022-12-25T02:13:43.428Z,8.81
2022-12-25T02:14:43.396Z,8.79
2022-12-25T02:15:43.371Z,8.77
2022-12-25T02:16:57.737Z,8.83
2022-12-25T02:17:43.339Z,8.80
2022-12-25T02:18:43.302Z,8.74
2022-12-25T02:19:43.276Z,8.81
2022-12-25T02:20:43.248Z,8.86
2022-12-25T02:21:43.225Z,8.80
2022-12-25T02:22:43.199Z,8.83
2022-12-25T02:23:43.174Z,8.80
2022-12-25T02:24:43.148Z,8.79
2022-12-25T02:25:43.126Z,8.81
2022-12-25T02:26:43.111Z,8.76
2022-12-25T02:27:43.074Z,8.74
2022-12-25T02:28:45.727Z,8.80
2022-12-25T02:29:43.016Z,8.79
2022-12-25T02:30:42.987Z,8.81
2022-12-25T02:31:43.045Z,8.76
2022-12-25T02:32:42.937Z,8.81
2022-12-25T02:33:42.922Z,8.83
2022-12-25T02:34:42.897Z,8.89
2022-12-25T02:35:42.865Z,8.80
2022-12-25T02:36:42.840Z,8.84
2022-12-25T02:37:42.830Z,8.80
2022-12-25T02:38:42.788Z,8.86
2022-12-25T02:39:42.765Z,8.79
2022-12-25T02:40:42.740Z,8.83
2022-12-25T02:41:42.715Z,8.89
2022-12-25T02:42:42.710Z,8.94
2022-12-25T02:43:42.672Z,8.84
2022-12-25T02:44:42.636Z,8.76
2022-12-25T02:45:42.657Z,8.83
2022-12-25T02:46:42.591Z,8.91
2022-12-25T02:47:42.561Z,8.79
2022-12-25T02:48:42.551Z,8.86
2022-12-25T02:49:42.512Z,8.89
2022-12-25T02:50:42.483Z,8.89
2022-12-25T02:51:42.465Z,8.77
2022-12-25T02:52:42.441Z,8.80
2022-12-25T02:53:42.423Z,8.77
2022-12-25T02:54:42.379Z,8.89
2022-12-25T02:55:42.360Z,8.87
2022-12-25T02:56:42.337Z,8.74
2022-12-25T02:57:42.306Z,8.91
2022-12-25T02:58:42.300Z,8.76
2022-12-25T02:59:42.258Z,8.89
2022-12-25T03:00:42.234Z,8.79
2022-12-25T03:01:42.429Z,8.87
2022-12-25T03:02:42.178Z,8.83
2022-12-25T03:03:42.196Z,8.80
2022-12-25T03:04:42.130Z,8.79
2022-12-25T03:05:42.103Z,8.80
2022-12-25T03:06:42.090Z,8.89
2022-12-25T03:07:42.091Z,8.86
2022-12-25T03:08:42.029Z,8.86
2022-12-25T03:09:42.011Z,8.87
2022-12-25T03:10:41.979Z,8.95
2022-12-25T03:11:41.963Z,8.89
2022-12-25T03:12:41.942Z,8.87
2022-12-25T03:13:41.901Z,8.87
2022-12-25T03:14:42.008Z,8.91
2022-12-25T03:15:41.895Z,8.91
2022-12-25T03:16:41.908Z,8.84
2022-12-25T03:17:41.800Z,8.92
2022-12-25T03:18:41.774Z,8.80
2022-12-25T03:19:41.755Z,8.86
2022-12-25T03:20:41.720Z,8.89
2022-12-25T03:21:41.716Z,8.86
2022-12-25T03:22:41.676Z,8.86
2022-12-25T03:23:41.650Z,8.87
2022-12-25T03:24:41.619Z,8.83
2022-12-25T03:25:41.595Z,8.96
2022-12-25T03:26:41.593Z,8.95
2022-12-25T03:27:41.556Z,8.96
2022-12-25T03:28:41.522Z,8.79
2022-12-25T03:29:41.501Z,8.80
2022-12-25T03:30:41.534Z,8.81
2022-12-25T03:31:41.445Z,8.99
2022-12-25T03:32:41.420Z,9.02
2022-12-25T03:33:45.647Z,8.95
2022-12-25T03:34:41.371Z,8.95
2022-12-25T03:35:41.345Z,8.99
2022-12-25T03:36:41.320Z,8.92
2022-12-25T03:37:41.291Z,8.94
2022-12-25T03:38:41.265Z,8.96
2022-12-25T03:39:41.249Z,8.91
2022-12-25T03:40:41.215Z,8.94
2022-12-25T03:41:41.192Z,8.92
2022-12-25T03:42:41.168Z,8.95
2022-12-25T03:43:41.144Z,8.91
2022-12-25T03:44:41.113Z,8.96
2022-12-25T03:45:41.089Z,8.92
2022-12-25T03:46:41.186Z,8.95
2022-12-25T03:47:41.045Z,8.96
2022-12-25T03:48:41.021Z,8.96
2022-12-25T03:49:41.012Z,8.96
2022-12-25T03:50:40.985Z,8.95
2022-12-25T03:51:40.948Z,9.04
2022-12-25T03:52:40.922Z,8.98
2022-12-25T03:53:40.888Z,9.08
2022-12-25T03:54:40.863Z,8.99
2022-12-25T03:55:40.846Z,9.02
2022-12-25T03:56:40.820Z,9.04
2022-12-25T03:57:40.808Z,9.01
2022-12-25T03:58:40.762Z,9.02
2022-12-25T03:59:40.777Z,9.02
2022-12-25T04:00:40.715Z,9.05
2022-12-25T04:01:40.841Z,9.01
2022-12-25T04:02:40.871Z,9.05
2022-12-25T04:03:40.663Z,9.08
2022-12-25T04:04:40.612Z,9.11
2022-12-25T04:05:40.625Z,9.04
2022-12-25T04:06:40.571Z,9.13
2022-12-25T04:07:40.544Z,9.11
2022-12-25T04:08:40.510Z,9.13
2022-12-25T04:09:40.487Z,9.11
2022-12-25T04:10:40.460Z,9.14
2022-12-25T04:11:40.450Z,9.15
2022-12-25T04:12:40.404Z,9.15
2022-12-25T04:13:40.400Z,9.18
2022-12-25T04:14:40.363Z,9.14
2022-12-25T04:15:40.453Z,9.17
2022-12-25T04:16:40.311Z,9.13
2022-12-25T04:17:40.285Z,9.10
2022-12-25T04:18:40.287Z,9.17
2022-12-25T04:19:40.232Z,9.14
2022-12-25T04:20:40.212Z,9.14
2022-12-25T04:21:40.200Z,9.05
2022-12-25T04:22:40.151Z,9.11
2022-12-25T04:23:40.131Z,9.13
2022-12-25T04:24:40.102Z,9.14
2022-12-25T04:25:40.072Z,9.15
2022-12-25T04:26:40.050Z,9.20
2022-12-25T04:27:40.039Z,9.20
2022-12-25T04:28:40.002Z,9.15
2022-12-25T04:29:39.999Z,9.15
2022-12-25T04:30:39.951Z,9.08
2022-12-25T04:31:40.081Z,9.15
2022-12-25T04:32:39.902Z,9.18
2022-12-25T04:33:39.900Z,9.14
2022-12-25T04:34:39.873Z,9.11
2022-12-25T04:35:39.835Z,9.14
2022-12-25T04:36:39.809Z,9.14
2022-12-25T04:37:39.784Z,9.17
2022-12-25T04:38:39.779Z,9.15
2022-12-25T04:39:39.732Z,9.26
2022-12-25T04:40:39.705Z,9.20
2022-12-25T04:41:39.673Z,9.24
2022-12-25T04:42:39.657Z,9.21
2022-12-25T04:43:39.627Z,9.26
2022-12-25T04:44:39.608Z,9.28
2022-12-25T04:45:39.584Z,9.29
2022-12-25T04:46:39.642Z,9.20
2022-12-25T04:47:39.525Z,9.33
2022-12-25T04:48:39.498Z,9.26
2022-12-25T04:49:39.467Z,9.35
2022-12-25T04:50:39.473Z,9.28
2022-12-25T04:51:39.425Z,9.24
2022-12-25T04:52:39.403Z,9.35
2022-12-25T04:53:39.372Z,9.33
2022-12-25T04:54:39.344Z,9.21
2022-12-25T04:55:39.313Z,9.33
2022-12-25T04:56:45.353Z,9.36
2022-12-25T04:57:39.272Z,9.31
2022-12-25T04:58:39.245Z,9.26
2022-12-25T04:59:39.273Z,9.33
2022-12-25T05:00:39.205Z,9.33
2022-12-25T05:01:39.393Z,9.31
2022-12-25T05:02:39.365Z,9.38
2022-12-25T05:03:39.243Z,9.31
2022-12-25T05:04:39.093Z,9.28
2022-12-25T05:05:39.073Z,9.24
2022-12-25T05:06:39.063Z,9.32
2022-12-25T05:07:39.013Z,9.24
2022-12-25T05:08:38.994Z,9.36
2022-12-25T05:09:38.957Z,9.32
2022-12-25T05:10:38.944Z,9.26
2022-12-25T05:11:38.912Z,9.31
2022-12-25T05:12:38.887Z,9.31
2022-12-25T05:13:38.921Z,9.32
2022-12-25T05:14:38.837Z,9.32
2022-12-25T05:15:38.822Z,9.31
2022-12-25T05:16:38.786Z,9.32
2022-12-25T05:17:38.755Z,9.40
2022-12-25T05:18:38.748Z,9.38
2022-12-25T05:19:38.713Z,9.39
2022-12-25T05:20:40.437Z,9.40
2022-12-25T05:21:38.663Z,9.33
2022-12-25T05:22:38.659Z,9.32
2022-12-25T05:23:38.608Z,9.32
2022-12-25T05:24:38.583Z,9.28
2022-12-25T05:25:38.554Z,9.33
2022-12-25T05:26:38.550Z,9.32
2022-12-25T05:27:38.506Z,9.32
2022-12-25T05:28:38.486Z,9.32
2022-12-25T05:29:38.462Z,9.43
2022-12-25T05:30:38.440Z,9.35
2022-12-25T05:31:38.607Z,9.35
2022-12-25T05:32:38.388Z,9.33
2022-12-25T05:33:38.357Z,9.40
2022-12-25T05:34:38.329Z,9.36
2022-12-25T05:35:38.311Z,9.42
2022-12-25T05:36:38.281Z,9.42
2022-12-25T05:37:38.255Z,9.35
2022-12-25T05:38:38.262Z,9.36
2022-12-25T05:39:38.207Z,9.32
2022-12-25T05:40:38.188Z,9.35
2022-12-25T05:41:38.154Z,9.39
2022-12-25T05:42:38.151Z,9.38
2022-12-25T05:43:38.107Z,9.42
2022-12-25T05:44:38.084Z,9.40
2022-12-25T05:45:38.054Z,9.46
2022-12-25T05:46:38.083Z,9.36
2022-12-25T05:47:38.003Z,9.38
2022-12-25T05:48:37.997Z,9.38
2022-12-25T05:49:37.948Z,9.36
2022-12-25T05:50:37.929Z,9.43
2022-12-25T05:51:37.905Z,9.54
2022-12-25T05:52:37.877Z,9.43
2022-12-25T05:53:37.848Z,9.43
2022-12-25T05:54:37.854Z,9.42
2022-12-25T05:55:37.804Z,9.38
2022-12-25T05:56:37.774Z,9.42
2022-12-25T05:57:37.768Z,9.50
2022-12-25T05:58:37.746Z,9.48
2022-12-25T05:59:37.703Z,9.46
2022-12-25T06:00:37.691Z,9.42
2022-12-25T06:01:37.797Z,9.36
2022-12-25T06:02:37.780Z,9.46
2022-12-25T06:03:37.640Z,9.33
2022-12-25T06:04:37.580Z,9.35
2022-12-25T06:05:37.543Z,9.38
2022-12-25T06:06:37.551Z,9.42
2022-12-25T06:07:37.503Z,9.42
2022-12-25T06:08:37.476Z,9.40
2022-12-25T06:09:37.449Z,9.38
2022-12-25T06:10:37.452Z,9.42
2022-12-25T06:11:37.397Z,9.36
2022-12-25T06:12:37.371Z,9.32
2022-12-25T06:13:37.357Z,9.43
2022-12-25T06:14:37.340Z,9.32
2022-12-25T06:15:37.619Z,9.39
2022-12-25T06:16:38.481Z,9.33
2022-12-25T06:17:37.247Z,9.33
2022-12-25T06:18:37.221Z,9.29
2022-12-25T06:19:37.198Z,9.23
2022-12-25T06:20:37.175Z,9.24
2022-12-25T06:21:37.146Z,9.35
2022-12-25T06:22:37.121Z,9.29
2022-12-25T06:23:37.175Z,9.28
2022-12-25T06:24:37.074Z,9.24
2022-12-25T06:25:37.044Z,9.21
2022-12-25T06:26:37.062Z,9.26
2022-12-25T06:27:37.007Z,9.23
2022-12-25T06:28:36.973Z,9.29
2022-12-25T06:29:36.953Z,9.26
2022-12-25T06:30:36.927Z,9.26
2022-12-25T06:31:36.949Z,9.23
2022-12-25T06:32:36.876Z,9.23
2022-12-25T06:33:36.846Z,9.26
2022-12-25T06:34:36.821Z,9.18
2022-12-25T06:35:36.822Z,9.24
2022-12-25T06:36:36.769Z,9.17
2022-12-25T06:37:36.744Z,9.31
2022-12-25T06:38:36.732Z,9.21
2022-12-25T06:39:36.687Z,9.18
2022-12-25T06:40:36.671Z,9.24
2022-12-25T06:41:36.641Z,9.24
2022-12-25T06:42:36.840Z,9.23
2022-12-25T06:43:36.589Z,9.26
2022-12-25T06:44:36.566Z,9.32
2022-12-25T06:45:36.622Z,9.21
2022-12-25T06:46:36.516Z,9.24
2022-12-25T06:47:36.498Z,9.20
2022-12-25T06:48:36.465Z,9.23
2022-12-25T06:49:36.453Z,9.13
2022-12-25T06:50:36.417Z,9.14
2022-12-25T06:51:36.390Z,9.15
2022-12-25T06:52:36.370Z,9.11
2022-12-25T06:53:39.765Z,9.13
2022-12-25T06:54:36.313Z,9.17
2022-12-25T06:55:36.284Z,9.11
2022-12-25T06:56:36.264Z,9.10
2022-12-25T06:57:36.265Z,9.13
2022-12-25T06:58:36.237Z,9.11
2022-12-25T06:59:36.184Z,9.14
2022-12-25T07:00:36.182Z,9.08
2022-12-25T07:01:36.278Z,9.08
2022-12-25T07:02:36.345Z,9.11
2022-12-25T07:03:36.083Z,9.05
2022-12-25T07:04:36.058Z,8.99
2022-12-25T07:05:36.041Z,8.98
2022-12-25T07:06:36.017Z,9.08
2022-12-25T07:07:35.989Z,9.02
2022-12-25T07:08:35.960Z,9.08
2022-12-25T07:09:35.960Z,9.05
2022-12-25T07:10:35.917Z,9.08
2022-12-25T07:11:35.894Z,9.11
2022-12-25T07:12:35.861Z,9.04
2022-12-25T07:13:35.852Z,8.94
2022-12-25T07:14:35.840Z,9.08
2022-12-25T07:15:35.796Z,9.05
2022-12-25T07:16:35.844Z,9.01
2022-12-25T07:17:35.733Z,9.01
2022-12-25T07:18:35.708Z,9.01
2022-12-25T07:19:41.058Z,9.01
2022-12-25T07:20:35.665Z,9.08
2022-12-25T07:21:35.626Z,8.96
2022-12-25T07:22:35.607Z,8.96
2022-12-25T07:23:35.584Z,8.98
2022-12-25T07:24:35.610Z,8.94
2022-12-25T07:25:37.633Z,8.96
2022-12-25T07:26:35.507Z,8.98
2022-12-25T07:27:35.485Z,9.01
2022-12-25T07:28:35.488Z,8.98
2022-12-25T07:29:35.429Z,9.01
2022-12-25T07:30:35.428Z,8.95
2022-12-25T07:31:35.398Z,8.96
2022-12-25T07:32:35.355Z,8.98
2022-12-25T07:33:35.332Z,8.92
2022-12-25T07:34:35.308Z,8.96
2022-12-25T07:35:35.278Z,8.96
2022-12-25T07:36:35.251Z,8.92
2022-12-25T07:37:35.223Z,8.91
2022-12-25T07:38:35.205Z,8.83
2022-12-25T07:39:35.176Z,8.95
2022-12-25T07:40:35.149Z,8.99
2022-12-25T07:41:35.124Z,8.96
2022-12-25T07:42:35.104Z,8.99
2022-12-25T07:43:35.069Z,8.99
2022-12-25T07:44:35.055Z,9.01
2022-12-25T07:45:35.090Z,8.95
2022-12-25T07:46:35.018Z,8.95
2022-12-25T07:47:34.973Z,8.95
2022-12-25T07:48:34.949Z,8.96
2022-12-25T07:49:34.920Z,8.95
2022-12-25T07:50:34.903Z,8.89
2022-12-25T07:51:34.871Z,8.94
2022-12-25T07:52:41.444Z,8.91
2022-12-25T07:53:34.823Z,8.92
2022-12-25T07:54:34.814Z,8.99
2022-12-25T07:55:34.765Z,8.95
2022-12-25T07:56:34.787Z,9.02
2022-12-25T07:57:34.720Z,8.95
2022-12-25T07:58:34.700Z,8.95
2022-12-25T07:59:34.665Z,8.96
2022-12-25T08:00:34.718Z,9.04
2022-12-25T08:01:35.000Z,8.99
2022-12-25T08:02:35.001Z,9.08
2022-12-25T08:03:34.865Z,9.02
2022-12-25T08:04:34.559Z,8.99
2022-12-25T08:05:34.528Z,8.99
2022-12-25T08:06:34.544Z,9.01
2022-12-25T08:07:34.467Z,9.08
2022-12-25T08:08:34.444Z,9.04
2022-12-25T08:09:34.425Z,9.02
2022-12-25T08:10:34.395Z,9.02
2022-12-25T08:11:34.366Z,8.98
2022-12-25T08:12:34.341Z,9.04
2022-12-25T08:13:34.319Z,8.91
2022-12-25T08:14:34.297Z,9.08
2022-12-25T08:15:34.259Z,9.04
2022-12-25T08:16:34.290Z,8.92
2022-12-25T08:17:34.217Z,9.08
2022-12-25T08:18:34.222Z,9.10
2022-12-25T08:19:34.164Z,9.04
2022-12-25T08:20:34.145Z,9.13
2022-12-25T08:21:34.117Z,9.08
2022-12-25T08:22:34.093Z,9.13
2022-12-25T08:23:34.065Z,9.14
2022-12-25T08:24:34.036Z,9.14
2022-12-25T08:25:34.015Z,9.15
2022-12-25T08:26:33.984Z,9.17
2022-12-25T08:27:34.082Z,9.14
2022-12-25T08:28:33.952Z,9.17
2022-12-25T08:29:33.910Z,9.08
2022-12-25T08:30:33.924Z,9.14
2022-12-25T08:31:34.033Z,9.17
2022-12-25T08:32:33.835Z,9.11
2022-12-25T08:33:33.813Z,9.14
2022-12-25T08:34:33.808Z,9.23
2022-12-25T08:35:33.759Z,9.23
2022-12-25T08:36:33.738Z,9.15
2022-12-25T08:37:33.711Z,9.17
2022-12-25T08:38:33.729Z,9.31
2022-12-25T08:39:33.659Z,9.21
2022-12-25T08:40:33.638Z,9.26
2022-12-25T08:41:33.606Z,9.17
2022-12-25T08:42:33.588Z,9.24
2022-12-25T08:43:33.557Z,9.24
2022-12-25T08:44:33.533Z,9.21
2022-12-25T08:45:35.309Z,9.24
2022-12-25T08:46:33.503Z,9.24
2022-12-25T08:47:33.465Z,9.32
2022-12-25T08:48:33.430Z,9.24
2022-12-25T08:49:33.408Z,9.24
2022-12-25T08:50:33.405Z,9.23
2022-12-25T08:51:33.359Z,9.23
2022-12-25T08:52:33.339Z,9.24
2022-12-25T08:53:33.309Z,9.23
2022-12-25T08:54:33.281Z,9.15
2022-12-25T08:55:33.255Z,9.14
2022-12-25T08:56:33.232Z,9.11
2022-12-25T08:57:33.203Z,9.23
2022-12-25T08:58:33.179Z,9.24
2022-12-25T08:59:33.158Z,9.23
2022-12-25T09:00:33.126Z,9.24
2022-12-25T09:01:33.227Z,9.21
2022-12-25T09:02:33.182Z,9.23
2022-12-25T09:03:33.328Z,9.32
2022-12-25T09:04:33.030Z,9.31
2022-12-25T09:05:33.005Z,9.26
2022-12-25T09:06:33.001Z,9.21
2022-12-25T09:07:32.963Z,9.21
2022-12-25T09:08:32.927Z,9.26
2022-12-25T09:09:32.898Z,9.20
2022-12-25T09:10:32.887Z,9.23
2022-12-25T09:11:32.857Z,9.20
2022-12-25T09:12:32.838Z,9.29
2022-12-25T09:13:32.804Z,9.26
2022-12-25T09:14:32.775Z,9.18
2022-12-25T09:15:32.904Z,9.14
2022-12-25T09:16:32.768Z,9.13
2022-12-25T09:17:32.702Z,9.15
2022-12-25T09:18:32.672Z,9.18
2022-12-25T09:19:32.654Z,9.11
2022-12-25T09:20:32.638Z,9.15
2022-12-25T09:21:32.610Z,9.20
2022-12-25T09:22:32.599Z,9.11
2022-12-25T09:23:32.553Z,9.18
2022-12-25T09:24:32.531Z,9.08
2022-12-25T09:25:32.499Z,9.11
2022-12-25T09:26:32.478Z,9.18
2022-12-25T09:27:32.454Z,9.20
2022-12-25T09:28:32.437Z,9.13
2022-12-25T09:29:32.403Z,9.14
2022-12-25T09:30:32.439Z,9.14
2022-12-25T09:31:32.474Z,9.14
2022-12-25T09:32:32.322Z,9.14
2022-12-25T09:33:32.301Z,9.13
2022-12-25T09:34:32.274Z,9.15
2022-12-25T09:35:32.256Z,9.11
2022-12-25T09:36:32.225Z,9.14
2022-12-25T09:37:32.200Z,9.17
2022-12-25T09:38:32.196Z,9.15
2022-12-25T09:39:32.170Z,9.20
2022-12-25T09:40:32.125Z,9.28
2022-12-25T09:41:32.138Z,9.23
2022-12-25T09:42:32.108Z,9.18
2022-12-25T09:43:32.079Z,9.23
2022-12-25T09:44:32.029Z,9.21
2022-12-25T09:45:31.996Z,9.23
2022-12-25T09:46:36.969Z,9.23
2022-12-25T09:47:31.960Z,9.28
2022-12-25T09:48:31.922Z,9.26
2022-12-25T09:49:31.902Z,9.36
2022-12-25T09:50:31.871Z,9.35
2022-12-25T09:51:31.852Z,9.35
2022-12-25T09:52:31.825Z,9.33
2022-12-25T09:53:31.794Z,9.35
2022-12-25T09:54:31.792Z,9.35
2022-12-25T09:55:31.750Z,9.32
2022-12-25T09:56:31.725Z,9.31
2022-12-25T09:57:31.700Z,9.42
2022-12-25T09:58:31.667Z,9.35
2022-12-25T09:59:31.650Z,9.28
2022-12-25T10:00:31.618Z,9.31
2022-12-25T10:01:31.721Z,9.31
2022-12-25T10:02:31.767Z,9.29
2022-12-25T10:03:31.647Z,9.36
2022-12-25T10:04:33.681Z,9.43
2022-12-25T10:05:31.498Z,9.43
2022-12-25T10:06:31.475Z,9.38
2022-12-25T10:07:31.449Z,9.39
2022-12-25T10:08:31.420Z,9.43
2022-12-25T10:09:31.398Z,9.42
2022-12-25T10:10:31.401Z,9.40
2022-12-25T10:11:31.349Z,9.47
2022-12-25T10:12:31.324Z,9.38
2022-12-25T10:13:31.303Z,9.46
2022-12-25T10:14:31.272Z,9.36
2022-12-25T10:15:31.386Z,9.40
2022-12-25T10:16:31.289Z,9.39
2022-12-25T10:17:31.193Z,9.43
2022-12-25T10:18:31.171Z,9.43
2022-12-25T10:19:31.143Z,9.43
2022-12-25T10:20:31.125Z,9.47
2022-12-25T10:21:31.101Z,9.54
2022-12-25T10:22:31.065Z,9.56
2022-12-25T10:23:31.043Z,9.53
2022-12-25T10:24:31.028Z,9.50
2022-12-25T10:25:31.001Z,9.60
2022-12-25T10:26:30.996Z,9.57
2022-12-25T10:27:30.945Z,9.46
2022-12-25T10:28:30.919Z,9.48
2022-12-25T10:29:30.895Z,9.54
2022-12-25T10:30:30.865Z,9.57
2022-12-25T10:31:30.959Z,9.58
2022-12-25T10:32:30.817Z,9.48
2022-12-25T10:33:30.800Z,9.48
2022-12-25T10:34:30.769Z,9.50
2022-12-25T10:35:30.743Z,9.54
2022-12-25T10:36:30.718Z,9.46
2022-12-25T10:37:30.901Z,9.47
2022-12-25T10:38:30.666Z,9.42
2022-12-25T10:39:30.643Z,9.50
2022-12-25T10:40:30.614Z,9.47
2022-12-25T10:41:30.598Z,9.50
2022-12-25T10:42:30.611Z,9.56
2022-12-25T10:43:30.545Z,9.58
2022-12-25T10:44:30.524Z,9.51
2022-12-25T10:45:30.495Z,9.54
2022-12-25T10:46:30.509Z,9.58
2022-12-25T10:47:30.442Z,9.56
2022-12-25T10:48:30.434Z,9.58
2022-12-25T10:49:30.389Z,9.54
2022-12-25T10:50:30.363Z,9.61
2022-12-25T10:51:30.347Z,9.54
2022-12-25T10:52:30.308Z,9.64
2022-12-25T10:53:30.287Z,9.65
2022-12-25T10:54:30.268Z,9.69
2022-12-25T10:55:30.231Z,9.72
2022-12-25T10:56:30.210Z,9.66
2022-12-25T10:57:30.193Z,9.71
2022-12-25T10:58:30.196Z,9.66
2022-12-25T10:59:30.156Z,9.66
2022-12-25T11:00:30.107Z,9.79
2022-12-25T11:01:30.206Z,9.78
2022-12-25T11:02:30.312Z,9.81
2022-12-25T11:03:30.269Z,9.79
2022-12-25T11:04:30.009Z,9.71
2022-12-25T11:05:29.992Z,9.76
2022-12-25T11:06:29.965Z,9.81
2022-12-25T11:07:29.955Z,9.81
2022-12-25T11:08:29.911Z,9.84
2022-12-25T11:09:29.904Z,9.79
2022-12-25T11:10:29.864Z,9.79
2022-12-25T11:11:29.850Z,9.81
2022-12-25T11:12:29.809Z,9.81
2022-12-25T11:13:29.787Z,9.84
2022-12-25T11:14:29.782Z,9.83
2022-12-25T11:15:29.743Z,9.75
2022-12-25T11:16:29.781Z,9.79
2022-12-25T11:17:29.693Z,9.86
2022-12-25T11:18:29.659Z,9.79
2022-12-25T11:19:29.641Z,9.84
2022-12-25T11:20:29.613Z,9.79
2022-12-25T11:21:29.591Z,9.76
2022-12-25T11:22:29.573Z,9.79
2022-12-25T11:23:29.558Z,9.78
2022-12-25T11:24:29.508Z,9.78
2022-12-25T11:25:29.492Z,9.78
2022-12-25T11:26:29.460Z,9.79
2022-12-25T11:27:29.438Z,9.83
2022-12-25T11:28:29.415Z,9.84
2022-12-25T11:29:29.398Z,9.79
2022-12-25T11:30:29.377Z,9.74
2022-12-25T11:31:29.382Z,9.75
2022-12-25T11:32:29.307Z,9.84
2022-12-25T11:33:29.285Z,9.79
2022-12-25T11:34:29.256Z,9.84
2022-12-25T11:35:29.237Z,9.83
2022-12-25T11:36:29.210Z,9.79
2022-12-25T11:37:29.195Z,9.78
2022-12-25T11:38:29.161Z,9.76
2022-12-25T11:39:29.135Z,9.86
2022-12-25T11:40:29.107Z,9.75
2022-12-25T11:41:29.089Z,9.83
2022-12-25T11:42:29.065Z,9.78
2022-12-25T11:43:29.039Z,9.79
2022-12-25T11:44:29.012Z,9.76
2022-12-25T11:45:28.989Z,9.76
2022-12-25T11:46:29.116Z,9.83
2022-12-25T11:47:28.939Z,9.69
2022-12-25T11:48:28.910Z,9.69
2022-12-25T11:49:28.898Z,9.74
2022-12-25T11:50:28.857Z,9.74
2022-12-25T11:51:28.838Z,9.76
2022-12-25T11:52:28.812Z,9.75
2022-12-25T11:53:28.793Z,9.79
2022-12-25T11:54:28.764Z,9.74
2022-12-25T11:55:28.741Z,9.83
2022-12-25T11:56:28.717Z,9.79
2022-12-25T11:57:28.691Z,9.78
2022-12-25T11:58:28.662Z,9.83
2022-12-25T11:59:28.638Z,9.87
2022-12-25T12:00:28.609Z,9.81
2022-12-25T12:01:28.767Z,9.84
2022-12-25T12:02:28.790Z,9.87
2022-12-25T12:03:28.776Z,9.81
2022-12-25T12:04:31.757Z,9.90
2022-12-25T12:05:28.491Z,9.89
2022-12-25T12:06:28.462Z,9.91
2022-12-25T12:07:28.440Z,9.91
2022-12-25T12:08:28.410Z,9.93
2022-12-25T12:09:28.400Z,9.91
2022-12-25T12:10:28.367Z,9.94
2022-12-25T12:11:28.346Z,9.93
2022-12-25T12:12:28.331Z,9.90
2022-12-25T12:13:28.297Z,9.89
2022-12-25T12:14:28.260Z,9.94
2022-12-25T12:15:28.253Z,9.91
2022-12-25T12:16:28.307Z,9.93
2022-12-25T12:17:28.190Z,9.90
2022-12-25T12:18:28.243Z,9.89
2022-12-25T12:19:28.143Z,9.91
2022-12-25T12:20:28.120Z,9.97
2022-12-25T12:21:28.129Z,9.97
2022-12-25T12:22:28.086Z,9.91
2022-12-25T12:23:28.069Z,9.91
2022-12-25T12:24:28.025Z,9.91
2022-12-25T12:25:27.995Z,9.91
2022-12-25T12:26:27.976Z,9.97
2022-12-25T12:27:27.938Z,9.91
2022-12-25T12:28:27.921Z,9.97
2022-12-25T12:29:27.906Z,9.94
2022-12-25T12:30:27.863Z,10.01
2022-12-25T12:31:27.894Z,9.97
2022-12-25T12:32:27.823Z,9.94
2022-12-25T12:33:27.794Z,9.97
2022-12-25T12:34:27.785Z,9.96
2022-12-25T12:35:27.758Z,9.93
2022-12-25T12:36:36.104Z,9.97
2022-12-25T12:37:27.700Z,9.96
2022-12-25T12:38:27.672Z,9.93
2022-12-25T12:39:27.648Z,9.94
2022-12-25T12:40:27.616Z,9.89
2022-12-25T12:41:27.596Z,9.96
2022-12-25T12:42:27.569Z,9.91
2022-12-25T12:43:27.547Z,9.96
2022-12-25T12:44:27.516Z,9.93
2022-12-25T12:45:27.580Z,9.96
2022-12-25T12:46:31.070Z,9.89
2022-12-25T12:47:27.447Z,9.89
2022-12-25T12:48:27.421Z,9.97
2022-12-25T12:49:27.400Z,9.96
2022-12-25T12:50:27.426Z,9.97
2022-12-25T12:51:27.347Z,9.96
2022-12-25T12:52:27.324Z,9.97
2022-12-25T12:53:27.305Z,9.90
2022-12-25T12:54:27.271Z,9.93
2022-12-25T12:55:27.249Z,9.94
2022-12-25T12:56:27.219Z,9.90
2022-12-25T12:57:27.207Z,9.90
2022-12-25T12:58:27.175Z,9.93
2022-12-25T12:59:27.147Z,9.96
2022-12-25T13:00:27.128Z,9.90
2022-12-25T13:01:27.327Z,9.93
2022-12-25T13:02:27.216Z,9.93
2022-12-25T13:03:27.220Z,9.94
2022-12-25T13:04:27.026Z,9.94
2022-12-25T13:05:33.959Z,10.05
2022-12-25T13:06:27.003Z,9.93
2022-12-25T13:07:26.952Z,9.97
2022-12-25T13:08:26.927Z,10.01
2022-12-25T13:09:26.901Z,9.97
2022-12-25T13:10:26.893Z,9.87
2022-12-25T13:11:26.847Z,9.87
2022-12-25T13:12:26.825Z,9.86
2022-12-25T13:13:26.802Z,9.90
2022-12-25T13:14:26.788Z,9.89
2022-12-25T13:15:26.748Z,9.90
2022-12-25T13:16:26.817Z,9.87
2022-12-25T13:17:26.698Z,9.93
2022-12-25T13:18:26.686Z,9.89